sensor_id;sensor_type;location;lat;lon;timestamp;temperature;humidity
63013;DHT22;62113;45.624;11.700;2023-09-08T16:00:45;31.20;33.10
63013;DHT22;62113;45.624;11.700;2023-09-08T16:03:11;31.20;33.20
63013;DHT22;62113;45.624;11.700;2023-09-08T16:05:37;31.20;33.30
63013;DHT22;62113;45.624;11.700;2023-09-08T16:08:02;31.20;33.20
63013;DHT22;62113;45.624;11.700;2023-09-08T16:10:28;31.20;33.20
63013;DHT22;62113;45.624;11.700;2023-09-08T16:12:53;31.10;33.30
63013;DHT22;62113;45.624;11.700;2023-09-08T16:15:20;31.10;33.50
63013;DHT22;62113;45.624;11.700;2023-09-08T16:17:46;31.10;33.70
63013;DHT22;62113;45.624;11.700;2023-09-08T16:20:11;31.10;33.80
63013;DHT22;62113;45.624;11.700;2023-09-08T16:22:37;31.00;33.80
63013;DHT22;62113;45.624;11.700;2023-09-08T16:25:03;31.00;33.80
63013;DHT22;62113;45.624;11.700;2023-09-08T16:27:28;31.00;34.00
63013;DHT22;62113;45.624;11.700;2023-09-08T16:29:55;31.00;34.10
63013;DHT22;62113;45.624;11.700;2023-09-08T16:32:21;31.00;34.30
63013;DHT22;62113;45.624;11.700;2023-09-08T16:34:50;31.00;34.10
63013;DHT22;62113;45.624;11.700;2023-09-08T16:37:16;31.00;33.90
63013;DHT22;62113;45.624;11.700;2023-09-08T16:39:42;31.00;34.20
63013;DHT22;62113;45.624;11.700;2023-09-08T16:42:07;30.90;34.10
63013;DHT22;62113;45.624;11.700;2023-09-08T16:44:33;30.90;34.10
63013;DHT22;62113;45.624;11.700;2023-09-08T16:46:59;30.90;34.00
63013;DHT22;62113;45.624;11.700;2023-09-08T16:49:24;30.80;34.40
63013;DHT22;62113;45.624;11.700;2023-09-08T16:51:51;30.80;34.30
63013;DHT22;62113;45.624;11.700;2023-09-08T16:54:19;30.70;34.80
63013;DHT22;62113;45.624;11.700;2023-09-08T16:56:45;30.70;34.60
63013;DHT22;62113;45.624;11.700;2023-09-08T16:59:10;30.70;34.80
63013;DHT22;62113;45.624;11.700;2023-09-08T17:01:36;30.70;35.10
63013;DHT22;62113;45.624;11.700;2023-09-08T17:04:02;30.70;34.90
63013;DHT22;62113;45.624;11.700;2023-09-08T17:06:28;30.60;34.90
63013;DHT22;62113;45.624;11.700;2023-09-08T17:08:54;30.50;35.00
63013;DHT22;62113;45.624;11.700;2023-09-08T17:11:20;30.50;35.10
63013;DHT22;62113;45.624;11.700;2023-09-08T17:13:45;30.40;35.20
63013;DHT22;62113;45.624;11.700;2023-09-08T17:16:11;30.40;35.30
63013;DHT22;62113;45.624;11.700;2023-09-08T17:18:37;30.40;35.50
63013;DHT22;62113;45.624;11.700;2023-09-08T17:21:03;30.40;35.70
63013;DHT22;62113;45.624;11.700;2023-09-08T17:23:29;30.40;35.90
63013;DHT22;62113;45.624;11.700;2023-09-08T17:25:55;30.40;36.20
63013;DHT22;62113;45.624;11.700;2023-09-08T17:28:21;30.20;36.30
63013;DHT22;62113;45.624;11.700;2023-09-08T17:30:47;30.20;36.30
63013;DHT22;62113;45.624;11.700;2023-09-08T17:33:12;30.10;36.50
63013;DHT22;62113;45.624;11.700;2023-09-08T17:35:38;30.10;36.70
63013;DHT22;62113;45.624;11.700;2023-09-08T17:38:04;30.00;36.80
63013;DHT22;62113;45.624;11.700;2023-09-08T17:40:31;30.00;37.20
63013;DHT22;62113;45.624;11.700;2023-09-08T17:42:56;30.00;37.40
63013;DHT22;62113;45.624;11.700;2023-09-08T17:45:22;29.80;37.50
63013;DHT22;62113;45.624;11.700;2023-09-08T17:47:48;29.90;37.70
63013;DHT22;62113;45.624;11.700;2023-09-08T17:50:13;29.80;37.80
63013;DHT22;62113;45.624;11.700;2023-09-08T17:52:41;29.80;37.90
63013;DHT22;62113;45.624;11.700;2023-09-08T17:55:07;29.70;38.10
63013;DHT22;62113;45.624;11.700;2023-09-08T17:57:34;29.70;38.10
63013;DHT22;62113;45.624;11.700;2023-09-08T17:59:59;29.70;38.30
63013;DHT22;62113;45.624;11.700;2023-09-08T18:02:25;29.60;38.40
63013;DHT22;62113;45.624;11.700;2023-09-08T18:04:51;29.60;38.50
63013;DHT22;62113;45.624;11.700;2023-09-08T18:07:17;29.60;38.60
63013;DHT22;62113;45.624;11.700;2023-09-08T18:09:42;29.50;38.80
63013;DHT22;62113;45.624;11.700;2023-09-08T18:12:08;29.40;39.10
63013;DHT22;62113;45.624;11.700;2023-09-08T18:14:33;29.40;39.20
63013;DHT22;62113;45.624;11.700;2023-09-08T18:16:59;29.40;39.40
63013;DHT22;62113;45.624;11.700;2023-09-08T18:19:25;29.30;39.60
63013;DHT22;62113;45.624;11.700;2023-09-08T18:21:50;29.30;39.90
63013;DHT22;62113;45.624;11.700;2023-09-08T18:24:16;29.20;40.10
63013;DHT22;62113;45.624;11.700;2023-09-08T18:26:42;29.20;40.40
63013;DHT22;62113;45.624;11.700;2023-09-08T18:29:07;29.20;41.10
63013;DHT22;62113;45.624;11.700;2023-09-08T18:31:33;29.10;40.80
63013;DHT22;62113;45.624;11.700;2023-09-08T18:33:58;29.00;41.00
63013;DHT22;62113;45.624;11.700;2023-09-08T18:36:25;29.00;41.20
63013;DHT22;62113;45.624;11.700;2023-09-08T18:38:51;29.00;41.30
63013;DHT22;62113;45.624;11.700;2023-09-08T18:41:16;28.90;41.40
63013;DHT22;62113;45.624;11.700;2023-09-08T18:43:43;28.80;41.50
63013;DHT22;62113;45.624;11.700;2023-09-08T18:46:09;28.80;41.80
63013;DHT22;62113;45.624;11.700;2023-09-08T18:48:34;28.70;42.00
63013;DHT22;62113;45.624;11.700;2023-09-08T18:51:01;28.70;42.30
63013;DHT22;62113;45.624;11.700;2023-09-08T18:53:27;28.70;42.60
63013;DHT22;62113;45.624;11.700;2023-09-08T18:55:53;28.70;42.80
63013;DHT22;62113;45.624;11.700;2023-09-08T18:58:18;28.70;43.00
63013;DHT22;62113;45.624;11.700;2023-09-08T19:00:44;28.70;43.20
63013;DHT22;62113;45.624;11.700;2023-09-08T19:03:10;28.70;43.40
63013;DHT22;62113;45.624;11.700;2023-09-08T19:05:36;28.70;43.40
63013;DHT22;62113;45.624;11.700;2023-09-08T19:08:02;28.60;43.40
63013;DHT22;62113;45.624;11.700;2023-09-08T19:10:29;28.50;43.40
63013;DHT22;62113;45.624;11.700;2023-09-08T19:12:55;28.50;43.60
63013;DHT22;62113;45.624;11.700;2023-09-08T19:15:20;28.50;43.70
63013;DHT22;62113;45.624;11.700;2023-09-08T19:17:46;28.40;43.70
63013;DHT22;62113;45.624;11.700;2023-09-08T19:20:11;28.50;43.80
63013;DHT22;62113;45.624;11.700;2023-09-08T19:22:37;28.40;43.90
63013;DHT22;62113;45.624;11.700;2023-09-08T19:25:03;28.40;43.80
63013;DHT22;62113;45.624;11.700;2023-09-08T19:27:29;28.40;43.90
63013;DHT22;62113;45.624;11.700;2023-09-08T19:29:55;28.30;44.00
63013;DHT22;62113;45.624;11.700;2023-09-08T19:32:21;28.20;44.10
63013;DHT22;62113;45.624;11.700;2023-09-08T19:34:46;28.20;44.20
63013;DHT22;62113;45.624;11.700;2023-09-08T19:37:12;28.20;44.20
63013;DHT22;62113;45.624;11.700;2023-09-08T19:39:38;28.20;44.30
63013;DHT22;62113;45.624;11.700;2023-09-08T19:42:03;28.10;44.40
63013;DHT22;62113;45.624;11.700;2023-09-08T19:44:29;28.00;44.50
63013;DHT22;62113;45.624;11.700;2023-09-08T19:46:55;28.00;44.60
63013;DHT22;62113;45.624;11.700;2023-09-08T19:49:20;28.00;44.70
63013;DHT22;62113;45.624;11.700;2023-09-08T19:51:46;27.90;44.80
63013;DHT22;62113;45.624;11.700;2023-09-08T19:54:11;27.80;44.80
63013;DHT22;62113;45.624;11.700;2023-09-08T19:56:37;27.80;44.80
63013;DHT22;62113;45.624;11.700;2023-09-08T19:59:03;27.80;45.00
63013;DHT22;62113;45.624;11.700;2023-09-08T20:01:28;27.80;45.10
63013;DHT22;62113;45.624;11.700;2023-09-08T20:03:54;27.70;45.20
63013;DHT22;62113;45.624;11.700;2023-09-08T20:06:19;27.70;45.30
63013;DHT22;62113;45.624;11.700;2023-09-08T20:08:45;27.70;45.40
63013;DHT22;62113;45.624;11.700;2023-09-08T20:11:11;27.70;45.50
63013;DHT22;62113;45.624;11.700;2023-09-08T20:13:37;27.70;45.50
63013;DHT22;62113;45.624;11.700;2023-09-08T20:16:04;27.60;45.50
63013;DHT22;62113;45.624;11.700;2023-09-08T20:18:32;27.60;45.60
63013;DHT22;62113;45.624;11.700;2023-09-08T20:20:59;27.50;45.70
63013;DHT22;62113;45.624;11.700;2023-09-08T20:23:27;27.50;45.80
63013;DHT22;62113;45.624;11.700;2023-09-08T20:25:53;27.50;45.90
63013;DHT22;62113;45.624;11.700;2023-09-08T20:28:19;27.40;45.90
63013;DHT22;62113;45.624;11.700;2023-09-08T20:30:44;27.30;46.10
63013;DHT22;62113;45.624;11.700;2023-09-08T20:33:10;27.40;46.30
63013;DHT22;62113;45.624;11.700;2023-09-08T20:35:37;27.30;46.40
63013;DHT22;62113;45.624;11.700;2023-09-08T20:38:04;27.30;46.50
63013;DHT22;62113;45.624;11.700;2023-09-08T20:40:31;27.30;46.50
63013;DHT22;62113;45.624;11.700;2023-09-08T20:42:56;27.30;46.40
63013;DHT22;62113;45.624;11.700;2023-09-08T20:45:22;27.20;46.40
63013;DHT22;62113;45.624;11.700;2023-09-08T20:47:48;27.20;46.50
63013;DHT22;62113;45.624;11.700;2023-09-08T20:50:15;27.20;46.50
63013;DHT22;62113;45.624;11.700;2023-09-08T20:52:41;27.20;46.60
63013;DHT22;62113;45.624;11.700;2023-09-08T20:55:08;27.20;46.60
63013;DHT22;62113;45.624;11.700;2023-09-08T20:57:34;27.20;46.70
63013;DHT22;62113;45.624;11.700;2023-09-08T21:00:00;27.20;46.70
63013;DHT22;62113;45.624;11.700;2023-09-08T21:02:26;27.20;46.60
63013;DHT22;62113;45.624;11.700;2023-09-08T21:04:52;27.20;46.60
63013;DHT22;62113;45.624;11.700;2023-09-08T21:07:17;27.20;46.50
63013;DHT22;62113;45.624;11.700;2023-09-08T21:09:43;27.10;46.50
63013;DHT22;62113;45.624;11.700;2023-09-08T21:12:08;27.10;46.50
63013;DHT22;62113;45.624;11.700;2023-09-08T21:14:34;27.10;46.50
63013;DHT22;62113;45.624;11.700;2023-09-08T21:17:00;27.10;46.60
63013;DHT22;62113;45.624;11.700;2023-09-08T21:19:25;27.00;46.60
63013;DHT22;62113;45.624;11.700;2023-09-08T21:21:54;27.00;46.60
63013;DHT22;62113;45.624;11.700;2023-09-08T21:24:19;27.00;46.70
63013;DHT22;62113;45.624;11.700;2023-09-08T21:26:47;27.00;46.80
63013;DHT22;62113;45.624;11.700;2023-09-08T21:29:12;26.80;46.90
63013;DHT22;62113;45.624;11.700;2023-09-08T21:31:38;26.70;47.10
63013;DHT22;62113;45.624;11.700;2023-09-08T21:34:04;26.60;47.30
63013;DHT22;62113;45.624;11.700;2023-09-08T21:36:29;26.60;47.50
63013;DHT22;62113;45.624;11.700;2023-09-08T21:38:55;26.50;47.70
63013;DHT22;62113;45.624;11.700;2023-09-08T21:41:21;26.50;47.90
63013;DHT22;62113;45.624;11.700;2023-09-08T21:43:47;26.50;48.20
63013;DHT22;62113;45.624;11.700;2023-09-08T21:46:12;26.40;48.30
63013;DHT22;62113;45.624;11.700;2023-09-08T21:48:38;26.40;48.50
63013;DHT22;62113;45.624;11.700;2023-09-08T21:51:04;26.40;48.70
63013;DHT22;62113;45.624;11.700;2023-09-08T21:53:30;26.30;48.80
63013;DHT22;62113;45.624;11.700;2023-09-08T21:55:56;26.30;48.80
63013;DHT22;62113;45.624;11.700;2023-09-08T21:58:21;26.20;48.80
63013;DHT22;62113;45.624;11.700;2023-09-08T22:00:47;26.20;49.00
63013;DHT22;62113;45.624;11.700;2023-09-08T22:03:13;26.20;49.20
63013;DHT22;62113;45.624;11.700;2023-09-08T22:05:40;26.20;49.20
63013;DHT22;62113;45.624;11.700;2023-09-08T22:08:07;26.20;49.30
63013;DHT22;62113;45.624;11.700;2023-09-08T22:10:33;26.10;49.50
63013;DHT22;62113;45.624;11.700;2023-09-08T22:12:59;26.10;49.60
63013;DHT22;62113;45.624;11.700;2023-09-08T22:15:25;26.10;49.40
63013;DHT22;62113;45.624;11.700;2023-09-08T22:17:50;26.10;49.40
63013;DHT22;62113;45.624;11.700;2023-09-08T22:20:16;26.00;49.50
63013;DHT22;62113;45.624;11.700;2023-09-08T22:22:42;26.00;49.50
63013;DHT22;62113;45.624;11.700;2023-09-08T22:25:11;26.00;49.40
63013;DHT22;62113;45.624;11.700;2023-09-08T22:27:38;25.90;49.40
63013;DHT22;62113;45.624;11.700;2023-09-08T22:30:04;25.90;49.50
63013;DHT22;62113;45.624;11.700;2023-09-08T22:32:31;25.90;49.60
63013;DHT22;62113;45.624;11.700;2023-09-08T22:34:57;25.90;49.70
63013;DHT22;62113;45.624;11.700;2023-09-08T22:37:23;25.80;49.70
63013;DHT22;62113;45.624;11.700;2023-09-08T22:39:48;25.80;49.80
63013;DHT22;62113;45.624;11.700;2023-09-08T22:42:14;25.80;49.80
63013;DHT22;62113;45.624;11.700;2023-09-08T22:44:39;25.80;49.80
63013;DHT22;62113;45.624;11.700;2023-09-08T22:47:05;26.00;49.20
63013;DHT22;62113;45.624;11.700;2023-09-08T22:49:57;26.10;49.00
63013;DHT22;62113;45.624;11.700;2023-09-08T22:52:25;26.10;49.00
63013;DHT22;62113;45.624;11.700;2023-09-08T22:54:50;26.10;48.90
63013;DHT22;62113;45.624;11.700;2023-09-08T22:57:16;26.10;48.80
63013;DHT22;62113;45.624;11.700;2023-09-08T22:59:43;26.10;48.80
63013;DHT22;62113;45.624;11.700;2023-09-08T23:02:08;26.10;48.70
63013;DHT22;62113;45.624;11.700;2023-09-08T23:04:34;26.20;48.80
63013;DHT22;62113;45.624;11.700;2023-09-08T23:07:00;26.20;48.60
63013;DHT22;62113;45.624;11.700;2023-09-08T23:09:26;26.20;48.70
63013;DHT22;62113;45.624;11.700;2023-09-08T23:11:52;26.10;48.80
63013;DHT22;62113;45.624;11.700;2023-09-08T23:14:22;26.10;49.00
63013;DHT22;62113;45.624;11.700;2023-09-08T23:16:48;26.10;49.00
63013;DHT22;62113;45.624;11.700;2023-09-08T23:19:14;26.00;49.10
63013;DHT22;62113;45.624;11.700;2023-09-08T23:21:40;25.90;49.20
63013;DHT22;62113;45.624;11.700;2023-09-08T23:24:06;26.00;49.30
63013;DHT22;62113;45.624;11.700;2023-09-08T23:26:32;25.90;49.30
63013;DHT22;62113;45.624;11.700;2023-09-08T23:28:58;25.90;49.40
63013;DHT22;62113;45.624;11.700;2023-09-08T23:31:26;25.90;49.50
63013;DHT22;62113;45.624;11.700;2023-09-08T23:33:52;25.80;49.50
63013;DHT22;62113;45.624;11.700;2023-09-08T23:36:18;25.80;49.50
63013;DHT22;62113;45.624;11.700;2023-09-08T23:38:44;25.70;49.60
63013;DHT22;62113;45.624;11.700;2023-09-08T23:41:09;25.70;49.60
63013;DHT22;62113;45.624;11.700;2023-09-08T23:43:35;25.70;49.50
63013;DHT22;62113;45.624;11.700;2023-09-08T23:46:01;25.70;49.50
63013;DHT22;62113;45.624;11.700;2023-09-08T23:48:27;25.80;49.50
63013;DHT22;62113;45.624;11.700;2023-09-08T23:50:57;25.70;49.40
63013;DHT22;62113;45.624;11.700;2023-09-08T23:53:24;25.70;49.40
63013;DHT22;62113;45.624;11.700;2023-09-08T23:55:50;25.70;49.30
63013;DHT22;62113;45.624;11.700;2023-09-08T23:58:17;25.70;49.30
